South Riding, Virginia
Current Conditions -  °F | °C
As of 8:52 PM on Tuesday 21 Oct 2014 (Local Time) from KIAD Reporting Station
Light Rain Light Rain  
Wind Chill: 53°   Ceiling: 6000
Heat Index: 53°   Visibility: 7mi
Dew Point: 50°   Wind: 3mph
Humidity: 89%   Direction: 310°NW
Pressure: 29.91"   Gusts: NA
Location:  38.8963°N, 77.5216°W
Report Text: KIAD 220052Z 31003KT 7SM -RA FEW015 OVC060 12/10 A2991 RMK AO2 SLP129 P0004 T01170100
Loading
Personal Weather Stations






























Interactive Weather Map
Tropical Storm Tracking
New forecast layout! Learn more

10-Day Weather Forecast

Advertisements
Track Severe Weather on mobile